Time;durP1;ratioP1;P1;durP2;ratioP2;P2;SDS_P1;SDS_P2;PMS_P1;PMS_P2;Temp;Humidity;BMP_temperature;BMP_pressure;BME280_temperature;BME280_humidity;BME280_pressure;Samples;Min_cycle;Max_cycle;Signal;HPM_P1;HPM_P2
2021/05/24 00:01:53;;;;;;;1.40;0.82;;;16.70;64.10;;;;;;10542824;28;20106;-54
2021/05/24 00:06:53;;;;;;;1.20;1.10;;;16.70;64.10;;;;;;10541327;28;20186;-55
2021/05/24 00:11:55;;;;;;;2.05;0.90;;;16.70;64.00;;;;;;10563577;28;20063;-56
2021/05/24 00:16:56;;;;;;;1.15;0.80;;;16.70;64.10;;;;;;10544438;28;20035;-55
2021/05/24 00:21:56;;;;;;;1.20;0.77;;;16.70;64.10;;;;;;10532247;28;20026;-55
2021/05/24 00:26:57;;;;;;;1.15;0.88;;;16.70;64.00;;;;;;10540940;28;20050;-55
2021/05/24 00:31:58;;;;;;;3.25;1.00;;;16.70;64.10;;;;;;10558498;28;20069;-54
2021/05/24 00:36:58;;;;;;;1.60;1.05;;;16.70;64.00;;;;;;10566600;28;20028;-55
2021/05/24 00:41:59;;;;;;;1.13;0.88;;;16.70;64.00;;;;;;10540082;28;20109;-56
2021/05/24 00:47:00;;;;;;;1.20;1.05;;;16.70;64.00;;;;;;10566699;28;20052;-55
2021/05/24 00:52:01;;;;;;;1.23;0.98;;;16.70;64.00;;;;;;10550906;28;20097;-52
2021/05/24 00:57:03;;;;;;;1.23;1.13;;;16.70;64.00;;;;;;10536139;28;20084;-55
2021/05/24 01:02:04;;;;;;;1.05;0.98;;;16.70;64.00;;;;;;10521797;28;20365;-54
2021/05/24 01:07:06;;;;;;;1.23;1.00;;;16.70;64.10;;;;;;10569966;28;20043;-54
2021/05/24 01:12:09;;;;;;;1.58;1.20;;;16.70;64.00;;;;;;10550783;28;20036;-54
2021/05/24 01:17:10;;;;;;;1.27;0.93;;;16.70;64.00;;;;;;10538811;28;20476;-55
2021/05/24 01:22:17;;;;;;;1.45;1.02;;;16.70;64.00;;;;;;10540851;28;20031;-54
2021/05/24 01:27:18;;;;;;;0.93;0.80;;;16.70;64.00;;;;;;10563660;28;20028;-53
2021/05/24 01:32:19;;;;;;;1.00;0.80;;;16.70;64.00;;;;;;10538819;28;20032;-53
2021/05/24 01:37:19;;;;;;;1.35;0.90;;;16.70;64.10;;;;;;10538725;28;20058;-55
2021/05/24 01:42:20;;;;;;;0.95;0.80;;;16.70;64.00;;;;;;10563579;28;20172;-55
2021/05/24 01:47:21;;;;;;;1.60;0.80;;;16.70;63.90;;;;;;10561703;28;20096;-55
2021/05/24 01:52:22;;;;;;;1.42;0.90;;;16.70;64.00;;;;;;10579028;28;20209;-55
2021/05/24 01:57:23;;;;;;;1.23;0.95;;;16.70;64.00;;;;;;10573716;28;20040;-55
2021/05/24 02:02:24;;;;;;;1.42;0.90;;;16.70;64.00;;;;;;10571586;28;20107;-52
2021/05/24 02:07:29;;;;;;;1.10;0.80;;;16.70;64.00;;;;;;10537885;28;20441;-55
2021/05/24 02:12:30;;;;;;;2.47;1.10;;;16.70;64.00;;;;;;10546304;28;20035;-55
2021/05/24 02:17:31;;;;;;;0.98;0.80;;;16.60;63.90;;;;;;10548531;28;20499;-54
2021/05/24 02:22:31;;;;;;;0.98;0.88;;;16.60;63.90;;;;;;10545588;28;20030;-55
2021/05/24 02:27:32;;;;;;;0.90;0.70;;;16.70;63.90;;;;;;10563990;28;20031;-55
2021/05/24 02:32:33;;;;;;;1.13;0.73;;;16.60;64.00;;;;;;10549911;28;20028;-54
2021/05/24 02:37:34;;;;;;;1.83;0.60;;;16.60;63.90;;;;;;10544533;28;20035;-54
2021/05/24 02:42:36;;;;;;;0.90;0.70;;;16.60;63.90;;;;;;10542571;28;20361;-52
2021/05/24 02:47:37;;;;;;;1.10;0.70;;;16.60;63.90;;;;;;10563968;28;20130;-54
2021/05/24 02:52:38;;;;;;;1.60;1.20;;;16.70;64.00;;;;;;10545856;28;20036;-55
2021/05/24 02:57:39;;;;;;;1.20;0.95;;;16.60;64.00;;;;;;10552920;28;20032;-55
2021/05/24 03:02:47;;;;;;;1.58;0.95;;;16.60;63.90;;;;;;10525861;28;20518;-53
2021/05/24 03:07:52;;;;;;;1.25;0.73;;;16.60;64.00;;;;;;10546337;28;20030;-55
2021/05/24 03:12:56;;;;;;;0.90;0.60;;;16.60;64.00;;;;;;10565698;28;20038;-53
2021/05/24 03:17:57;;;;;;;0.60;0.60;;;16.60;64.00;;;;;;10555728;28;20036;-54
2021/05/24 03:22:58;;;;;;;1.00;0.60;;;16.60;63.90;;;;;;10543427;28;20028;-60
2021/05/24 03:27:59;;;;;;;1.48;0.70;;;16.60;64.00;;;;;;10542889;28;20107;-60
2021/05/24 03:33:00;;;;;;;1.45;0.70;;;16.60;64.00;;;;;;10542731;28;20464;-60
2021/05/24 03:38:00;;;;;;;1.02;0.85;;;16.60;64.00;;;;;;10556818;28;20040;-58
2021/05/24 03:43:01;;;;;;;0.98;0.70;;;16.60;64.00;;;;;;10556788;28;20333;-60
2021/05/24 03:48:02;;;;;;;1.00;0.90;;;16.60;64.00;;;;;;10579257;28;20091;-60
2021/05/24 03:53:03;;;;;;;1.05;0.85;;;16.60;64.00;;;;;;10554357;28;20051;-61
2021/05/24 03:58:05;;;;;;;0.65;0.57;;;16.60;64.00;;;;;;10525479;28;20067;-60
2021/05/24 04:03:06;;;;;;;1.45;0.70;;;16.60;64.00;;;;;;10554398;28;20035;-61
2021/05/24 04:08:08;;;;;;;1.02;0.70;;;16.60;64.00;;;;;;10540951;28;20087;-60
2021/05/24 04:13:09;;;;;;;0.80;0.80;;;16.60;64.10;;;;;;10541578;28;20488;-60
2021/05/24 04:18:14;;;;;;;0.70;0.50;;;16.60;64.10;;;;;;10558299;28;20032;-60
2021/05/24 04:23:17;;;;;;;1.20;0.60;;;16.60;64.00;;;;;;10540762;28;20484;-60
2021/05/24 04:28:18;;;;;;;0.70;0.60;;;16.60;64.10;;;;;;10540425;28;20456;-60
2021/05/24 04:33:18;;;;;;;0.85;0.60;;;16.60;64.10;;;;;;10540444;28;20023;-60
2021/05/24 04:38:20;;;;;;;0.93;0.70;;;16.60;64.10;;;;;;10565220;28;20036;-60
2021/05/24 04:43:26;;;;;;;1.33;0.75;;;16.60;64.10;;;;;;10555047;28;20496;-60
2021/05/24 04:48:27;;;;;;;0.95;0.70;;;16.50;64.00;;;;;;10550059;28;20055;-60
2021/05/24 04:53:28;;;;;;;0.60;0.60;;;16.60;64.10;;;;;;10564728;28;20450;-60
2021/05/24 04:58:29;;;;;;;2.33;0.80;;;16.60;64.10;;;;;;10542465;28;20507;-60
2021/05/24 05:03:31;;;;;;;1.05;0.70;;;16.60;64.10;;;;;;10539197;28;20119;-61
2021/05/24 05:08:32;;;;;;;0.75;0.60;;;16.60;64.10;;;;;;10539230;28;20392;-60
2021/05/24 05:13:33;;;;;;;1.00;0.90;;;16.60;64.70;;;;;;10539191;28;20078;-60
2021/05/24 05:18:34;;;;;;;0.93;0.65;;;16.50;64.10;;;;;;10540965;28;20040;-61
2021/05/24 05:23:35;;;;;;;0.98;0.70;;;16.60;64.10;;;;;;10575813;28;20036;-60
2021/05/24 05:28:36;;;;;;;1.00;0.60;;;16.50;64.10;;;;;;10545783;28;20031;-60
2021/05/24 05:33:36;;;;;;;1.42;0.70;;;16.60;64.10;;;;;;10547546;28;20536;-60
2021/05/24 05:38:38;;;;;;;1.08;0.60;;;16.60;64.10;;;;;;10546558;28;20032;-60
2021/05/24 05:43:39;;;;;;;0.82;0.70;;;16.50;64.10;;;;;;10551896;28;20505;-60
2021/05/24 05:48:39;;;;;;;0.50;0.47;;;16.50;64.10;;;;;;10588066;28;20071;-60
2021/05/24 05:53:40;;;;;;;0.57;0.50;;;16.60;64.20;;;;;;10548687;28;20495;-60
2021/05/24 05:58:41;;;;;;;1.02;0.60;;;16.50;64.10;;;;;;10545965;28;20106;-61
2021/05/24 06:03:41;;;;;;;0.95;0.70;;;16.60;64.10;;;;;;10578368;28;20093;-61
2021/05/24 06:08:42;;;;;;;1.15;0.60;;;16.50;64.10;;;;;;10545953;28;20059;-61
2021/05/24 06:13:43;;;;;;;0.63;0.50;;;16.50;64.10;;;;;;10527732;28;20189;-60
2021/05/24 06:18:43;;;;;;;0.77;0.50;;;16.50;64.10;;;;;;10517555;28;20032;-60
2021/05/24 06:23:46;;;;;;;0.63;0.45;;;16.50;64.10;;;;;;10526836;28;20020;-60
2021/05/24 06:28:46;;;;;;;1.30;0.63;;;16.50;64.10;;;;;;10545123;28;20039;-60
2021/05/24 06:33:47;;;;;;;1.00;0.60;;;16.50;64.10;;;;;;10544958;28;20031;-61
2021/05/24 06:38:48;;;;;;;1.00;0.60;;;16.50;64.00;;;;;;10526430;28;20044;-60
2021/05/24 06:43:48;;;;;;;1.67;0.73;;;16.50;64.00;;;;;;10557995;28;20031;-60
2021/05/24 06:48:49;;;;;;;0.47;0.43;;;16.50;64.00;;;;;;10559104;28;20550;-60
2021/05/24 06:53:52;;;;;;;1.10;0.68;;;16.50;64.00;;;;;;10544717;28;20089;-60
2021/05/24 06:58:52;;;;;;;1.00;0.60;;;16.50;64.10;;;;;;10544073;28;20430;-60
2021/05/24 07:03:53;;;;;;;0.90;0.50;;;16.50;64.10;;;;;;10543524;28;20026;-61
2021/05/24 07:08:55;;;;;;;1.13;0.50;;;16.50;64.10;;;;;;10526014;28;20111;-61
2021/05/24 07:13:56;;;;;;;0.82;0.68;;;16.50;64.10;;;;;;10562531;28;20119;-60
2021/05/24 09:38:31;;;;;;;0.95;0.40;;;16.50;64.10;;;;;;10552509;28;20123;-60
2021/05/24 09:43:41;;;;;;;1.00;0.60;;;16.50;64.20;;;;;;10577816;28;20039;-61
2021/05/24 09:48:44;;;;;;;1.27;0.50;;;16.50;64.20;;;;;;10539724;28;20102;-61
2021/05/24 09:54:05;;;;;;;0.65;0.55;;;16.50;64.20;;;;;;10560582;28;20490;-61
2021/05/24 09:59:19;;;;;;;1.48;0.68;;;16.50;64.20;;;;;;10556475;28;20028;-61
2021/05/24 10:04:32;;;;;;;0.73;0.57;;;16.50;64.20;;;;;;10571559;28;20028;-60
2021/05/24 10:09:36;;;;;;;1.17;0.50;;;16.50;64.20;;;;;;10539336;28;20349;-61
2021/05/24 10:14:36;;;;;;;0.60;0.40;;;16.50;64.20;;;;;;10541065;28;20082;-61
2021/05/24 10:19:37;;;;;;;0.70;0.55;;;16.50;64.20;;;;;;10538992;28;20048;-60
2021/05/24 10:24:38;;;;;;;1.60;0.50;;;16.50;64.20;;;;;;10558907;28;20069;-60
2021/05/24 10:29:39;;;;;;;1.48;0.70;;;16.60;64.20;;;;;;10528069;28;20067;-61
2021/05/24 10:34:40;;;;;;;1.02;0.40;;;16.50;64.20;;;;;;10545752;28;20044;-61
2021/05/24 10:39:49;;;;;;;1.00;0.82;;;16.50;64.20;;;;;;10568875;28;20391;-61
2021/05/24 10:44:50;;;;;;;1.07;0.50;;;16.50;64.30;;;;;;10544409;28;20032;-60
2021/05/24 10:50:05;;;;;;;0.63;0.45;;;16.50;64.20;;;;;;10544942;28;20060;-61
2021/05/24 10:55:26;;;;;;;1.00;0.65;;;16.50;64.30;;;;;;10555612;28;20028;-61
2021/05/24 11:00:28;;;;;;;1.17;0.50;;;16.60;64.30;;;;;;10555176;28;20051;-61
2021/05/24 11:05:30;;;;;;;0.77;0.50;;;16.60;64.40;;;;;;10550094;28;20106;-61
2021/05/24 11:10:51;;;;;;;0.43;0.40;;;16.60;64.40;;;;;;10552399;28;20035;-60
2021/05/24 11:15:53;;;;;;;0.57;0.40;;;16.60;64.40;;;;;;10550740;28;20046;-59
2021/05/24 11:21:02;;;;;;;0.65;0.47;;;16.60;64.40;;;;;;10538356;28;20105;-60
2021/05/24 11:26:15;;;;;;;0.85;0.50;;;16.60;64.40;;;;;;10541788;28;20057;-60
2021/05/24 11:31:22;;;;;;;0.65;0.40;;;16.60;64.40;;;;;;10542956;28;20036;-61
2021/05/24 11:36:28;;;;;;;1.05;0.60;;;16.60;64.40;;;;;;10554949;28;20062;-60
2021/05/24 11:41:31;;;;;;;1.15;0.50;;;16.60;64.40;;;;;;10559331;28;20016;-61
2021/05/24 11:46:46;;;;;;;1.25;0.55;;;16.60;64.50;;;;;;10546463;28;20019;-61
2021/05/24 11:51:47;;;;;;;2.03;0.60;;;16.60;64.50;;;;;;10546932;28;20086;-60
2021/05/24 11:56:57;;;;;;;0.57;0.40;;;16.60;65.10;;;;;;10541791;28;20024;-61
2021/05/24 12:02:00;;;;;;;0.50;0.45;;;16.60;64.50;;;;;;10555041;28;20035;-60
2021/05/24 12:07:22;;;;;;;0.65;0.47;;;16.60;64.40;;;;;;10558269;28;20062;-60
2021/05/24 12:12:37;;;;;;;0.65;0.55;;;16.60;64.40;;;;;;10555632;28;20419;-61
2021/05/24 12:17:38;;;;;;;0.40;0.30;;;16.60;64.40;;;;;;10568056;28;20032;-60
2021/05/24 12:22:42;;;;;;;0.63;0.43;;;16.60;64.50;;;;;;10522516;28;20032;-54
2021/05/24 12:27:44;;;;;;;0.93;0.43;;;16.60;64.50;;;;;;10558306;28;20118;-54
2021/05/24 12:32:55;;;;;;;0.82;0.47;;;16.60;64.50;;;;;;10536333;28;20097;-54
2021/05/24 12:38:09;;;;;;;0.40;0.32;;;16.60;64.60;;;;;;10540118;28;20060;-52
2021/05/24 12:43:10;;;;;;;0.30;0.30;;;16.60;64.60;;;;;;10539988;28;20036;-55
2021/05/24 12:48:17;;;;;;;0.73;0.40;;;16.60;64.60;;;;;;10540240;28;20032;-56
2021/05/24 12:53:22;;;;;;;0.50;0.40;;;16.60;64.50;;;;;;10540052;28;20032;-54
2021/05/24 12:58:23;;;;;;;1.10;0.43;;;16.60;64.60;;;;;;10548699;28;20039;-54
2021/05/24 13:03:54;;;;;;;1.08;0.40;;;16.60;64.50;;;;;;10570180;28;20496;-54
2021/05/24 13:09:03;;;;;;;1.13;0.50;;;16.60;64.60;;;;;;10543436;28;20081;-55
2021/05/24 13:14:08;;;;;;;0.53;0.40;;;16.60;64.50;;;;;;10548223;28;20101;-53
2021/05/24 13:30:11;;;;;;;0.82;0.50;;;16.60;64.50;;;;;;10513053;28;20488;-55
2021/05/24 13:35:31;;;;;;;;;;;16.60;64.50;;;;;;10539499;28;20384;-55
2021/05/24 13:40:32;;;;;;;0.75;0.47;;;16.60;64.50;;;;;;10555039;28;19953;-55
2021/05/24 13:45:33;;;;;;;1.38;0.50;;;16.60;64.60;;;;;;10538321;28;20062;-53
2021/05/24 13:50:33;;;;;;;6.07;1.13;;;16.60;64.80;;;;;;10564290;28;20059;-55
2021/05/24 13:55:34;;;;;;;7.00;1.15;;;16.70;65.50;;;;;;10555109;28;20528;-57
2021/05/24 14:00:35;;;;;;;8.20;1.45;;;16.80;65.20;;;;;;10557931;28;20024;-57
2021/05/24 14:05:36;;;;;;;14.77;1.77;;;17.00;65.20;;;;;;10570342;28;20107;-57
2021/05/24 14:10:37;;;;;;;10.57;1.35;;;17.10;65.00;;;;;;10564352;28;20077;-59
2021/05/24 14:15:37;;;;;;;12.38;1.23;;;17.20;65.10;;;;;;10561051;28;20453;-57
2021/05/24 14:20:39;;;;;;;14.52;1.80;;;17.40;65.20;;;;;;10568680;28;20364;-55
2021/05/24 14:25:40;;;;;;;10.57;1.50;;;17.40;65.50;;;;;;10575896;28;20387;-58
2021/05/24 14:30:41;;;;;;;5.30;1.48;;;17.40;65.50;;;;;;10577197;28;20039;-55
2021/05/24 14:35:42;;;;;;;9.25;1.40;;;17.50;65.60;;;;;;10544730;28;20491;-54
2021/05/24 14:40:43;;;;;;;15.65;2.38;;;17.50;65.80;;;;;;10567600;28;20020;-54
2021/05/24 14:45:44;;;;;;;9.10;1.52;;;17.50;65.30;;;;;;10551600;28;20032;-54
2021/05/24 14:50:48;;;;;;;7.70;2.20;;;17.50;65.20;;;;;;10543312;28;20071;-54
2021/05/24 14:55:49;;;;;;;10.45;1.67;;;17.50;65.00;;;;;;10542161;28;20036;-55
2021/05/24 15:00:49;;;;;;;12.15;1.85;;;17.50;64.90;;;;;;10547341;28;20035;-55
2021/05/24 15:05:50;;;;;;;7.15;1.52;;;17.50;64.80;;;;;;10546200;28;20503;-54
2021/05/24 15:10:51;;;;;;;5.80;0.90;;;17.40;64.80;;;;;;10558079;28;20043;-55
2021/05/24 15:15:52;;;;;;;5.18;1.30;;;17.40;64.80;;;;;;10543119;28;20056;-55
2021/05/24 15:20:53;;;;;;;5.05;1.45;;;17.40;65.00;;;;;;10543757;28;20050;-55
2021/05/24 15:25:54;;;;;;;5.38;1.20;;;17.40;65.00;;;;;;10557690;28;20035;-55
2021/05/24 15:30:56;;;;;;;2.78;0.90;;;17.40;65.00;;;;;;10542996;28;20039;-57
2021/05/24 15:35:57;;;;;;;6.80;0.80;;;17.30;64.90;;;;;;10546180;28;20079;-55
2021/05/24 15:40:58;;;;;;;5.70;1.20;;;17.30;64.90;;;;;;10532411;28;20028;-56
2021/05/24 15:45:59;;;;;;;6.68;1.35;;;17.30;64.80;;;;;;10573301;28;20027;-52
2021/05/24 15:51:00;;;;;;;4.38;0.80;;;17.30;64.60;;;;;;10565267;28;20047;-55
2021/05/24 15:56:02;;;;;;;6.82;1.63;;;17.30;64.70;;;;;;10566085;28;20123;-55
2021/05/24 16:01:05;;;;;;;3.65;0.95;;;17.40;64.70;;;;;;10549453;28;20028;-53
2021/05/24 16:06:06;;;;;;;3.25;1.27;;;17.40;64.60;;;;;;10551451;28;20058;-55
2021/05/24 16:11:07;;;;;;;4.25;1.20;;;17.40;64.70;;;;;;10555423;28;20063;-57
2021/05/24 16:16:07;;;;;;;4.25;1.00;;;17.50;64.70;;;;;;10541222;28;20150;-55
2021/05/24 16:21:09;;;;;;;5.43;1.15;;;17.60;64.80;;;;;;10522630;28;20024;-60
2021/05/24 16:31:13;;;;;;;5.90;1.42;;;17.60;64.70;;;;;;10581269;28;20093;-55
2021/05/24 16:36:14;;;;;;;15.93;3.20;;;17.60;64.60;;;;;;10553613;28;20044;-55
2021/05/24 16:41:15;;;;;;;9.15;2.50;;;17.70;66.80;;;;;;10525736;28;20036;-49
2021/05/24 16:46:17;;;;;;;10.77;2.42;;;17.70;67.30;;;;;;10539768;28;20414;-55
2021/05/24 16:51:17;;;;;;;9.20;2.47;;;17.80;68.00;;;;;;10540133;28;20036;-57
2021/05/24 16:56:18;;;;;;;13.25;2.20;;;17.90;67.60;;;;;;10561699;28;20035;-58
2021/05/24 17:01:19;;;;;;;10.43;2.03;;;17.90;67.70;;;;;;10545547;28;20050;-53
2021/05/24 17:06:21;;;;;;;8.13;1.90;;;17.90;67.60;;;;;;10540426;28;20480;-55
2021/05/24 17:11:22;;;;;;;9.93;2.53;;;17.90;67.80;;;;;;10554772;28;20075;-54
2021/05/24 17:16:27;;;;;;;11.60;2.55;;;17.90;67.50;;;;;;10537968;28;20032;-54
2021/05/24 17:21:28;;;;;;;10.60;2.13;;;17.90;67.00;;;;;;10561652;28;20042;-53
2021/05/24 17:26:29;;;;;;;8.63;2.83;;;17.80;67.10;;;;;;10563787;28;20074;-54
2021/05/24 17:31:31;;;;;;;8.40;2.17;;;17.80;67.10;;;;;;10561604;28;20141;-55
2021/05/24 17:36:32;;;;;;;8.25;1.98;;;17.80;67.30;;;;;;10562101;28;20032;-57
2021/05/24 17:41:32;;;;;;;7.05;1.80;;;17.80;67.20;;;;;;10527704;28;20056;-57
2021/05/24 17:46:33;;;;;;;7.45;2.65;;;17.80;67.10;;;;;;10575572;28;20050;-57
2021/05/24 17:51:35;;;;;;;6.07;1.50;;;17.70;66.70;;;;;;10574990;28;20039;-57
2021/05/24 17:56:36;;;;;;;3.85;1.50;;;17.70;66.80;;;;;;10577474;28;20019;-57
2021/05/24 18:01:36;;;;;;;5.10;2.20;;;17.70;66.70;;;;;;10575958;28;20016;-57
2021/05/24 18:06:39;;;;;;;4.28;1.73;;;17.60;66.80;;;;;;10574294;28;20028;-56
2021/05/24 18:11:40;;;;;;;11.18;2.42;;;17.60;67.00;;;;;;10569283;28;20031;-56
2021/05/24 18:16:41;;;;;;;5.97;2.13;;;17.60;67.80;;;;;;10549848;28;20051;-56
2021/05/24 18:21:42;;;;;;;5.93;2.40;;;17.60;67.30;;;;;;10531983;28;20111;-57
2021/05/24 18:26:43;;;;;;;6.32;2.47;;;17.60;67.20;;;;;;10571127;28;20443;-56
2021/05/24 18:31:44;;;;;;;6.75;1.70;;;17.50;67.40;;;;;;10541813;28;20030;-56
2021/05/24 18:36:45;;;;;;;5.00;2.35;;;17.50;67.40;;;;;;10565588;28;20433;-57
2021/05/24 18:41:46;;;;;;;4.70;1.52;;;17.50;67.50;;;;;;10562720;28;20055;-55
2021/05/24 18:46:47;;;;;;;4.43;2.03;;;17.50;67.50;;;;;;10559492;28;20162;-57
2021/05/24 18:51:49;;;;;;;4.43;1.25;;;17.50;67.60;;;;;;10570939;28;20069;-57
2021/05/24 18:56:50;;;;;;;9.75;1.73;;;17.50;67.60;;;;;;10582808;28;20032;-57
2021/05/24 19:01:53;;;;;;;7.07;1.80;;;17.50;67.70;;;;;;10579116;28;20425;-56
2021/05/24 19:06:55;;;;;;;5.05;1.88;;;17.50;68.20;;;;;;10570333;28;20024;-57
2021/05/24 19:11:55;;;;;;;3.95;1.45;;;17.50;67.90;;;;;;10548380;28;20058;-56
2021/05/24 19:16:56;;;;;;;4.60;1.60;;;17.60;67.90;;;;;;10565711;28;20082;-56
2021/05/24 19:21:57;;;;;;;7.45;1.85;;;17.60;68.00;;;;;;10541405;28;20120;-56
2021/05/24 19:26:59;;;;;;;3.72;1.73;;;17.60;67.70;;;;;;10549834;28;20032;-57
2021/05/24 19:32:01;;;;;;;5.70;1.40;;;17.60;67.50;;;;;;10573306;28;20040;-57
2021/05/24 19:37:01;;;;;;;3.95;1.55;;;17.50;67.50;;;;;;9645878;28;25650221;-56
2021/05/24 19:42:03;;;;;;;5.35;1.70;;;17.60;67.40;;;;;;10567591;28;20034;-57
2021/05/24 19:47:27;;;;;;;2.75;1.20;;;17.60;67.30;;;;;;10545060;28;20031;-56
2021/05/24 20:24:12;;;;;;;4.13;1.30;;;17.70;66.40;;;;;;10540623;28;20036;-56
2021/05/24 20:29:14;;;;;;;;;;;17.70;66.30;;;;;;10557165;28;20046;-57
2021/05/24 20:34:15;;;;;;;4.03;1.33;;;17.70;66.20;;;;;;10561368;28;20578;-56
2021/05/24 20:39:16;;;;;;;5.78;1.92;;;17.70;66.10;;;;;;10549911;28;20017;-56
2021/05/24 20:44:17;;;;;;;2.78;1.27;;;17.70;66.00;;;;;;10548617;28;20027;-57
2021/05/24 20:49:18;;;;;;;3.28;1.17;;;17.70;65.90;;;;;;10557006;28;20093;-56
2021/05/24 20:54:19;;;;;;;4.82;1.48;;;17.70;65.90;;;;;;10539950;28;20428;-57
2021/05/24 20:59:20;;;;;;;3.08;1.20;;;17.70;65.80;;;;;;10539277;28;20032;-56
2021/05/24 21:04:21;;;;;;;2.10;1.30;;;17.70;65.80;;;;;;10552710;28;20020;-57
2021/05/24 21:09:22;;;;;;;3.33;1.10;;;17.70;65.70;;;;;;10573831;28;20483;-57
2021/05/24 21:14:22;;;;;;;2.28;0.90;;;17.70;65.70;;;;;;10545455;28;20046;-57
2021/05/24 21:19:23;;;;;;;2.65;1.05;;;17.80;65.70;;;;;;10538998;28;20060;-57
2021/05/24 21:24:24;;;;;;;4.07;1.42;;;17.70;65.60;;;;;;10547218;28;20541;-57
2021/05/24 21:29:24;;;;;;;3.10;1.10;;;17.70;65.60;;;;;;10545855;28;20040;-56
2021/05/24 21:39:44;;;;;;;3.77;1.67;;;17.80;65.50;;;;;;10538958;28;20060;-57
2021/05/24 21:44:45;;;;;;;5.50;1.27;;;17.80;65.40;;;;;;10538748;28;20055;-57
2021/05/24 21:49:46;;;;;;;1.80;0.70;;;17.80;65.40;;;;;;10539054;28;20024;-57
2021/05/24 21:54:46;;;;;;;1.83;1.00;;;17.80;65.40;;;;;;10538557;28;20150;-57
2021/05/24 21:59:47;;;;;;;2.15;1.10;;;17.70;65.30;;;;;;10538146;28;20497;-56
2021/05/24 22:04:48;;;;;;;3.40;1.25;;;17.70;65.40;;;;;;10556614;28;20475;-57
2021/05/24 22:09:49;;;;;;;2.08;1.02;;;17.80;65.30;;;;;;10554934;28;20401;-56
2021/05/24 22:14:50;;;;;;;2.00;0.90;;;17.80;65.30;;;;;;10574360;28;20054;-57
2021/05/24 22:19:58;;;;;;;1.52;0.90;;;17.80;65.20;;;;;;10546524;28;20056;-56
2021/05/24 22:24:59;;;;;;;1.48;0.82;;;17.80;65.10;;;;;;10546033;28;20039;-57
2021/05/24 22:30:00;;;;;;;2.58;0.90;;;17.80;65.10;;;;;;10567623;28;20028;-56
2021/05/24 22:35:01;;;;;;;1.45;0.80;;;17.80;65.10;;;;;;10559339;28;20039;-57
2021/05/24 22:40:04;;;;;;;2.50;0.88;;;17.80;65.00;;;;;;10544810;28;20031;-57
2021/05/24 22:45:09;;;;;;;1.25;0.80;;;17.80;65.00;;;;;;10531906;28;20067;-57
2021/05/24 22:50:12;;;;;;;2.45;1.00;;;17.80;65.00;;;;;;10562124;28;20101;-57
2021/05/24 22:55:21;;;;;;;2.72;1.00;;;17.80;65.00;;;;;;10544804;28;20040;-56
2021/05/24 23:00:25;;;;;;;1.38;1.00;;;17.80;64.90;;;;;;10527174;28;20099;-57
2021/05/24 23:05:28;;;;;;;1.55;0.80;;;17.80;64.90;;;;;;10548669;28;20036;-57
2021/05/24 23:10:29;;;;;;;3.45;0.98;;;17.80;64.80;;;;;;10557914;28;20050;-57
2021/05/24 23:15:29;;;;;;;1.30;0.90;;;17.80;64.80;;;;;;10525744;28;20107;-56
2021/05/24 23:20:30;;;;;;;1.85;1.02;;;17.80;64.80;;;;;;10543388;28;20035;-57
2021/05/24 23:25:31;;;;;;;1.50;0.80;;;17.80;64.80;;;;;;10545407;28;20039;-57
2021/05/24 23:30:31;;;;;;;1.42;1.02;;;17.80;64.80;;;;;;10566710;28;20020;-57
2021/05/24 23:35:32;;;;;;;2.03;1.10;;;17.80;64.70;;;;;;10529858;28;20051;-57
2021/05/24 23:40:34;;;;;;;1.70;1.00;;;17.80;64.70;;;;;;10542375;28;20047;-56
2021/05/24 23:45:36;;;;;;;1.50;0.82;;;17.80;64.70;;;;;;10545630;28;20040;-56
2021/05/24 23:50:37;;;;;;;1.50;0.80;;;17.80;64.70;;;;;;10556987;28;20024;-57
2021/05/24 23:55:38;;;;;;;0.95;0.70;;;17.80;64.60;;;;;;10549328;28;20110;-56
